createdAt,value
2023-03-02T00:06:19.140Z,1.10
2023-03-02T00:16:24.672Z,1.10
2023-03-02T00:26:28.408Z,1.10
2023-03-02T00:36:34.075Z,1.20
2023-03-02T00:46:37.717Z,1.20
2023-03-02T00:56:43.303Z,1.00
2023-03-02T01:06:47.764Z,0.80
2023-03-02T01:16:53.357Z,0.70
2023-03-02T01:26:57.125Z,0.50
2023-03-02T01:37:03.316Z,0.60
2023-03-02T01:47:13.928Z,0.80
2023-03-02T01:57:23.066Z,0.90
2023-03-02T02:07:27.853Z,0.70
2023-03-02T02:17:33.718Z,0.50
2023-03-02T02:27:39.188Z,0.60
2023-03-02T02:37:47.285Z,0.50
2023-03-02T02:47:53.722Z,0.50
2023-03-02T02:58:02.604Z,0.50
2023-03-02T03:08:32.120Z,0.40
2023-03-02T03:18:36.100Z,0.50
2023-03-02T03:28:41.049Z,0.70
2023-03-02T03:38:44.819Z,0.50
2023-03-02T03:48:50.077Z,0.50
2023-03-02T03:59:06.395Z,0.40
2023-03-02T04:09:12.335Z,0.40
2023-03-02T04:19:17.575Z,0.40
2023-03-02T04:29:23.579Z,0.60
2023-03-02T04:39:27.935Z,0.60
2023-03-02T04:49:32.909Z,0.50
2023-03-02T04:59:36.635Z,0.40
2023-03-02T05:09:41.623Z,0.30
2023-03-02T05:19:45.308Z,0.30
2023-03-02T05:29:50.341Z,0.30
2023-03-02T05:39:54.067Z,0.40
2023-03-02T05:49:59.289Z,0.50
2023-03-02T06:00:05.139Z,0.60
2023-03-02T06:10:13.173Z,0.50
2023-03-02T06:20:19.083Z,0.60
2023-03-02T06:30:27.883Z,0.60
2023-03-02T06:40:32.154Z,0.70
2023-03-02T06:50:37.382Z,0.80
2023-03-02T07:00:41.397Z,0.90
2023-03-02T07:10:46.451Z,0.90
2023-03-02T07:20:50.085Z,1.00
2023-03-02T07:30:55.455Z,1.20
2023-03-02T07:40:59.541Z,1.40
2023-03-02T07:51:07.524Z,1.70
2023-03-02T08:01:11.263Z,1.90
2023-03-02T08:11:18.364Z,2.20
2023-03-02T08:21:24.652Z,2.50
2023-03-02T08:31:29.964Z,2.70
2023-03-02T08:41:35.002Z,3.20
2023-03-02T08:51:40.394Z,3.50
2023-03-02T09:01:44.343Z,4.00
2023-03-02T09:11:49.459Z,4.20
2023-03-02T09:21:53.154Z,4.80
2023-03-02T09:31:58.347Z,4.70
2023-03-02T09:42:44.208Z,5.10
2023-03-02T09:53:02.420Z,5.40
2023-03-02T10:03:17.163Z,5.80
2023-03-02T10:13:27.510Z,6.20
2023-03-02T10:23:54.638Z,6.60
2023-03-02T10:34:00.881Z,6.90
2023-03-02T10:44:17.463Z,7.30
2023-03-02T10:54:22.498Z,7.50
2023-03-02T11:04:26.836Z,7.80
2023-03-02T11:14:33.632Z,8.20
2023-03-02T11:24:43.624Z,8.40
2023-03-02T11:34:55.211Z,8.70
2023-03-02T11:45:04.623Z,9.10
2023-03-02T11:55:20.348Z,9.10
2023-03-02T12:05:28.529Z,9.30
2023-03-02T12:15:43.536Z,9.90
2023-03-02T12:25:51.335Z,10.10
2023-03-02T12:36:13.360Z,10.20
2023-03-02T12:46:32.971Z,10.30
2023-03-02T12:56:38.325Z,10.40
2023-03-02T13:06:42.247Z,10.60
2023-03-02T13:16:57.584Z,10.80
2023-03-02T13:27:07.107Z,11.10
2023-03-02T13:37:24.079Z,11.30
2023-03-02T13:47:27.752Z,11.50
2023-03-02T13:57:34.226Z,11.70
2023-03-02T14:07:37.918Z,11.70
2023-03-02T14:17:43.463Z,11.90
2023-03-02T14:27:47.515Z,11.80
2023-03-02T14:37:52.557Z,11.80
2023-03-02T14:47:56.258Z,11.80
2023-03-02T14:58:05.823Z,11.80
2023-03-02T15:08:14.004Z,11.60
2023-03-02T15:18:19.728Z,11.30
2023-03-02T15:28:23.523Z,11.10
2023-03-02T15:38:28.976Z,11.10
2023-03-02T15:48:32.949Z,11.00
2023-03-02T15:58:38.064Z,10.80
2023-03-02T16:08:41.743Z,10.70
2023-03-02T16:18:51.489Z,10.60
2023-03-02T16:28:55.131Z,10.40
2023-03-02T16:39:00.501Z,10.20
2023-03-02T16:49:05.440Z,10.00
2023-03-02T16:59:10.471Z,9.70
2023-03-02T17:09:14.089Z,9.40
2023-03-02T17:19:19.154Z,9.00
2023-03-02T17:29:23.273Z,8.80
2023-03-02T17:39:28.643Z,8.40
2023-03-02T17:49:32.511Z,8.20
2023-03-02T17:59:37.776Z,7.70
2023-03-02T18:09:43.605Z,7.30
2023-03-02T18:19:49.042Z,7.20
2023-03-02T18:29:55.620Z,7.00
2023-03-02T18:40:00.907Z,6.80
2023-03-02T18:50:06.107Z,6.50
2023-03-02T19:00:18.221Z,6.20
2023-03-02T19:10:22.161Z,6.00
2023-03-02T19:20:28.225Z,5.80
2023-03-02T19:30:32.091Z,5.70
2023-03-02T19:40:38.238Z,5.50
2023-03-02T19:50:43.319Z,5.30
2023-03-02T20:00:49.611Z,5.40
2023-03-02T20:10:53.487Z,5.30
2023-03-02T20:20:59.869Z,5.10
2023-03-02T20:31:08.920Z,5.00
2023-03-02T20:41:15.274Z,4.90
2023-03-02T20:51:19.347Z,4.60
2023-03-02T21:01:25.886Z,4.30
2023-03-02T21:11:30.407Z,4.30
2023-03-02T21:21:41.387Z,4.30
2023-03-02T21:31:46.154Z,4.20
2023-03-02T21:41:51.857Z,4.20
2023-03-02T21:51:55.978Z,6.30
2023-03-02T22:02:01.099Z,3.80
2023-03-02T22:12:13.429Z,3.60
2023-03-02T22:22:24.533Z,3.60
2023-03-02T22:32:31.060Z,3.50
2023-03-02T22:42:38.831Z,3.40
2023-03-02T22:52:44.564Z,3.40
2023-03-02T23:02:53.776Z,3.40
2023-03-02T23:12:57.430Z,3.30
2023-03-02T23:23:02.627Z,3.20
2023-03-02T23:33:06.694Z,3.20
2023-03-02T23:43:11.620Z,3.10
2023-03-02T23:53:15.684Z,3.30
